Burns, TN (37029)

5:04 PM CST on February 10, 2016 (GMT -0600)
Tidwell Weather Station-- Intersection Hwy 47 and Hwy 96, Burns/Dickson | | Change Station
CLOSE
Current Station
Personal Weather Station
Location: Burns, TN
Elevation: 783 ft
Nearby Weather Stations

Elev 783 ft 36.05 °N, 87.30 °W | Updated 2 seconds ago

Overcast
Overcast
25.1 °F
Feels Like 25 °F
N
0.0
Wind Variable Wind from WNW
Gusts 0.0 mph

Today
High -- | Low -- °F
--% Chance of Precip.
Yesterday
High -- | Low -- °F
Precip. -- in
Pressure 30.18 in
Visibility 5.0 miles
Clouds Overcast 4500 ft
Windchill 25 °F
Dew Point 16 °F
Humidity 67%
Rainfall 0.00 in
Snow Depth Not available.
6:42 AM 5:24 PM
Waxing Crescent, 7% visible
METAR KBNA 102253Z 28007KT 5SM -SN OVC045 M02/M11 A3016 RMK AO2 SNB30 SLP218 P0000 T10171111
Pressure 30.18 in
Visibility 5.0 miles
Clouds Overcast 4500 ft
Windchill 25 °F
Dew Point 16 °F
Humidity 67%
Rainfall 0.00 in
Snow Depth Not available.
6:42 AM 5:24 PM
Waxing Crescent, 7% visible
METAR KBNA 102253Z 28007KT 5SM -SN OVC045 M02/M11 A3016 RMK AO2 SNB30 SLP218 P0000 T10171111

10-Day Weather Forecast

Almanac

Astronomy

Feb. 10, 2016 Rise Set
Actual Time
Civil Twilight
Nautical Twilight
Astronomical Twilight
Moon
Length of Visible Light
Length of Day
Tomorrow will be .
, % of the Moon is Illuminated

Today's Extremes

State Highs State Lows

Community

WunderPhotos

Upload Photos

1,891,933 photos uploaded!

WunderBlog® & News

Nearby

Air Quality

  Air Quality AQ Index Pollutant
Not available.

Snow Depth

Station Depth Elevation

Earthquake Activity

City Distance Mag. Time & Date
Minimum magnitude displayed is 2.5.

Coastal Water Temperatures

Place Temperature

Stations

Nearby Weather Stations

Station Location Temp. Windchill Dew Point Humidity Wind Precip. Elev Updated Type
                   

Watches & Warnings

There are currently no watches in effect.